Hlavní strana
METAR-TAF:

METAR-TAF

Letiště :

Kajaani, Finsko

zeměpisná šířka: 64-17N, zeměpisná délka: 027-41E, výška: 143 m

Aktuální stav počasí

Zpráva byla vytvořena před 24 minutami, v 00:50 UTC
Severozápadní vítr 8 kt, proměnlivý mezi západoseverozápadním a severním
Teplota 9°C
Vlhkost vzduchu 76%
Tlak 1010 hPa
Viditelnost 10 km a více
Žádná oblačnost pod 1500 m, nevyskytují se cumulonimby.

METAR: EFKI 220050Z AUTO 32008KT 300V010 CAVOK 09/05 Q1010

Čas: 04:14 (01:14 UTC)

Předpověď počasí

Zpráva byla vytvořena před 7 hodinami a 49 minutami, v 17:25 UTC
Předpověď platná od 20 v 18 UTC do 20 v 21 UTC
Západoseverozápadní vítr 5 kt
Viditelnost 10 km a více
Polojasno ve výšce 4500 ft

TAF: EFKI 201725Z 2018/2021 30005KT 9999 SCT045

Stav a předpovědi počasí z více než 4 000 letišť (zprávy METAR a TAF).

Červené a žluté tečky na mapě představují dostupné meteorologické stanice.

Když kurzor umístíte na tečku, zobrazí se název stanice.

Pak kliknutím zobrazíte stav a předpověď počasí.

Chcete-li změnit mapu, kliknutím na zelené tlačítko se znaménkem +mapu přiblížíte, kliknutím na zelené tlačítko se znaménkem – mapu oddálíte a kliknutím na zelené šipky přejdete na sousední mapy.


METAR-TAF: